createdAt,value
2023-05-17T00:01:01.038Z,3.45
2023-05-17T00:04:03.694Z,3.80
2023-05-17T00:07:06.312Z,5.43
2023-05-17T00:10:09.185Z,3.63
2023-05-17T00:13:11.658Z,3.70
2023-05-17T00:16:14.150Z,3.25
2023-05-17T00:19:16.708Z,3.40
2023-05-17T00:22:19.280Z,4.15
2023-05-17T00:25:21.766Z,3.72
2023-05-17T00:28:24.265Z,4.20
2023-05-17T00:31:26.717Z,4.35
2023-05-17T00:34:29.376Z,4.57
2023-05-17T00:37:31.917Z,4.25
2023-05-17T00:40:34.429Z,4.10
2023-05-17T00:43:36.916Z,4.43
2023-05-17T00:46:39.436Z,3.88
2023-05-17T00:49:41.972Z,3.75
2023-05-17T00:52:44.543Z,4.50
2023-05-17T00:55:48.442Z,4.35
2023-05-17T00:58:51.085Z,4.13
2023-05-17T01:01:54.119Z,5.47
2023-05-17T01:04:57.623Z,3.92
2023-05-17T01:08:00.324Z,6.70
2023-05-17T01:11:05.783Z,3.90
2023-05-17T01:14:17.396Z,4.53
2023-05-17T01:17:36.008Z,4.78
2023-05-17T01:20:43.691Z,4.45
2023-05-17T01:23:57.207Z,4.55
2023-05-17T01:27:00.621Z,4.40
2023-05-17T01:30:03.411Z,4.20
2023-05-17T01:33:06.493Z,3.88
2023-05-17T01:36:09.312Z,3.80
2023-05-17T01:39:11.813Z,4.18
2023-05-17T01:42:21.375Z,3.90
2023-05-17T01:45:31.360Z,3.77
2023-05-17T01:48:40.509Z,4.22
2023-05-17T01:51:57.570Z,3.88
2023-05-17T01:55:18.652Z,3.85
2023-05-17T01:58:22.923Z,4.43
2023-05-17T02:01:26.789Z,4.27
2023-05-17T02:04:30.609Z,4.47
2023-05-17T02:07:33.235Z,4.07
2023-05-17T02:10:35.762Z,3.97
2023-05-17T02:13:39.019Z,4.55
2023-05-17T02:16:41.526Z,5.10
2023-05-17T02:19:44.103Z,4.63
2023-05-17T02:22:46.551Z,4.32
2023-05-17T02:25:49.091Z,5.18
2023-05-17T02:28:51.535Z,4.43
2023-05-17T02:31:54.023Z,4.60
2023-05-17T02:34:56.667Z,4.88
2023-05-17T02:37:59.749Z,5.30
2023-05-17T02:41:02.210Z,4.72
2023-05-17T02:44:06.727Z,4.80
2023-05-17T02:47:09.378Z,4.10
2023-05-17T02:50:12.262Z,4.85
2023-05-17T02:53:14.913Z,4.75
2023-05-17T02:56:17.587Z,4.07
2023-05-17T02:59:20.353Z,5.68
2023-05-17T03:02:23.019Z,5.77
2023-05-17T03:05:25.633Z,6.45
2023-05-17T03:08:28.255Z,5.30
2023-05-17T03:11:31.840Z,6.22
2023-05-17T03:14:34.755Z,6.55
2023-05-17T03:17:37.758Z,5.50
2023-05-17T03:20:41.163Z,5.63
2023-05-17T03:23:43.733Z,4.93
2023-05-17T03:26:46.310Z,6.03
2023-05-17T03:29:49.236Z,4.93
2023-05-17T03:32:53.298Z,5.00
2023-05-17T03:35:55.972Z,5.05
2023-05-17T03:38:58.479Z,5.07
2023-05-17T03:42:02.130Z,5.03
2023-05-17T03:45:05.680Z,5.28
2023-05-17T03:48:08.275Z,4.83
2023-05-17T03:51:11.054Z,4.75
2023-05-17T03:54:13.752Z,4.50
2023-05-17T03:57:16.303Z,4.32
2023-05-17T04:00:22.006Z,5.20
2023-05-17T04:03:24.503Z,5.00
2023-05-17T04:06:27.184Z,4.07
2023-05-17T04:09:31.402Z,4.72
2023-05-17T04:12:35.438Z,4.80
2023-05-17T04:15:38.040Z,4.13
2023-05-17T04:18:41.758Z,5.70
2023-05-17T04:21:45.865Z,3.72
2023-05-17T04:24:48.810Z,4.70
2023-05-17T04:27:51.258Z,3.75
2023-05-17T04:30:56.293Z,4.35
2023-05-17T04:33:58.962Z,5.07
2023-05-17T04:37:01.589Z,4.07
2023-05-17T04:40:04.636Z,4.28
2023-05-17T04:43:09.325Z,6.22
2023-05-17T04:46:12.764Z,12.13
2023-05-17T04:49:15.301Z,8.90
2023-05-17T04:52:18.157Z,5.32
2023-05-17T04:55:22.052Z,4.70
2023-05-17T04:58:24.901Z,3.95
2023-05-17T05:01:35.318Z,4.85
2023-05-17T05:04:38.162Z,4.27
2023-05-17T05:07:41.071Z,4.20
2023-05-17T05:10:46.145Z,4.53
2023-05-17T05:13:50.419Z,8.13
2023-05-17T05:16:53.155Z,5.07
2023-05-17T05:19:56.056Z,5.40
2023-05-17T05:23:00.886Z,5.90
2023-05-17T05:26:04.629Z,5.10
2023-05-17T05:29:07.728Z,5.85
2023-05-17T05:32:10.324Z,5.55
2023-05-17T05:35:19.162Z,5.57
2023-05-17T05:38:21.824Z,5.45
2023-05-17T05:41:24.499Z,6.13
2023-05-17T05:44:27.090Z,5.78
2023-05-17T05:47:31.710Z,6.25
2023-05-17T05:50:34.950Z,7.43
2023-05-17T05:53:42.669Z,7.75
2023-05-17T05:56:45.182Z,8.57
2023-05-17T05:59:49.800Z,9.98
2023-05-17T06:02:53.931Z,7.22
2023-05-17T06:05:56.744Z,7.47
2023-05-17T06:08:59.916Z,7.97
2023-05-17T06:12:02.578Z,6.63
2023-05-17T06:15:06.215Z,7.78
2023-05-17T06:18:08.747Z,8.25
2023-05-17T06:21:13.477Z,7.27
2023-05-17T06:24:16.989Z,6.60
2023-05-17T06:27:19.518Z,6.68
2023-05-17T06:30:22.323Z,7.28
2023-05-17T06:33:24.873Z,7.13
2023-05-17T06:36:27.383Z,6.57
2023-05-17T06:39:29.881Z,6.97
2023-05-17T06:42:33.220Z,7.90
2023-05-17T06:45:35.679Z,6.97
2023-05-17T06:48:38.338Z,6.82
2023-05-17T06:51:40.916Z,6.50
2023-05-17T06:54:43.695Z,6.53
2023-05-17T06:57:46.284Z,7.07
2023-05-17T07:00:48.866Z,6.80
2023-05-17T07:03:51.443Z,5.75
2023-05-17T07:06:54.017Z,5.70
2023-05-17T07:09:56.455Z,6.05
2023-05-17T07:12:59.509Z,7.80
2023-05-17T07:16:02.136Z,6.22
2023-05-17T07:19:04.834Z,6.28
2023-05-17T07:22:07.429Z,6.47
2023-05-17T07:25:10.527Z,6.15
2023-05-17T07:28:13.037Z,7.55
2023-05-17T07:31:15.721Z,6.75
2023-05-17T07:34:18.235Z,7.32
2023-05-17T07:37:20.942Z,6.77
2023-05-17T07:40:23.499Z,6.78
2023-05-17T07:43:26.100Z,7.90
2023-05-17T07:46:28.781Z,7.28
2023-05-17T07:49:32.225Z,7.18
2023-05-17T07:52:34.783Z,7.67
2023-05-17T07:55:37.299Z,8.05
2023-05-17T07:58:40.100Z,6.93
2023-05-17T08:01:42.573Z,6.47
2023-05-17T08:04:45.443Z,6.40
2023-05-17T08:07:47.971Z,6.87
2023-05-17T08:10:50.469Z,6.93
2023-05-17T08:13:53.012Z,6.43
2023-05-17T08:16:55.613Z,7.68
2023-05-17T08:19:58.074Z,7.47
2023-05-17T08:23:00.756Z,7.60
2023-05-17T08:26:03.293Z,7.63
2023-05-17T08:29:05.846Z,7.38
2023-05-17T08:32:08.344Z,9.27
2023-05-17T08:35:11.368Z,8.70
2023-05-17T08:38:13.930Z,9.23
2023-05-17T08:41:16.442Z,8.25
2023-05-17T08:44:19.605Z,9.68
2023-05-17T08:47:32.366Z,9.52
2023-05-17T08:50:36.076Z,9.38
2023-05-17T08:53:38.955Z,9.73
2023-05-17T08:56:42.905Z,7.95
2023-05-17T08:59:46.826Z,7.63
2023-05-17T09:02:49.796Z,7.93
2023-05-17T09:07:02.916Z,7.18
2023-05-17T09:10:06.416Z,7.85
2023-05-17T09:13:12.483Z,8.53
2023-05-17T09:16:15.792Z,7.15
